createdAt,value
2022-11-05T00:00:19.564Z,10.07
2022-11-05T00:03:04.850Z,9.60
2022-11-05T00:05:50.333Z,9.60
2022-11-05T00:08:43.315Z,9.00
2022-11-05T00:11:16.874Z,8.83
2022-11-05T00:14:03.688Z,8.40
2022-11-05T00:16:45.446Z,8.47
2022-11-05T00:19:13.395Z,8.13
2022-11-05T00:21:58.460Z,7.70
2022-11-05T00:24:43.839Z,7.03
2022-11-05T00:27:11.018Z,7.13
2022-11-05T00:29:37.545Z,6.53
2022-11-05T00:32:04.314Z,7.10
2022-11-05T00:34:30.860Z,7.50
2022-11-05T00:36:57.437Z,6.70
2022-11-05T00:39:23.980Z,6.73
2022-11-05T00:42:10.522Z,6.87
2022-11-05T00:44:55.577Z,5.90
2022-11-05T00:47:41.021Z,6.20
2022-11-05T00:50:07.973Z,6.73
2022-11-05T00:52:53.156Z,6.37
2022-11-05T00:55:19.691Z,6.60
2022-11-05T00:57:46.567Z,6.60
2022-11-05T01:00:13.715Z,6.87
2022-11-05T01:02:40.333Z,6.67
2022-11-05T01:05:07.306Z,5.93
2022-11-05T01:07:33.934Z,5.97
2022-11-05T01:10:00.508Z,6.13
2022-11-05T01:12:27.121Z,7.07
2022-11-05T01:14:53.663Z,6.00
2022-11-05T01:17:20.222Z,6.27
2022-11-05T01:19:46.760Z,6.00
2022-11-05T01:22:13.608Z,6.03
2022-11-05T01:24:40.150Z,6.17
2022-11-05T01:27:06.741Z,5.60
2022-11-05T01:29:33.355Z,6.00
2022-11-05T01:31:59.922Z,6.57
2022-11-05T01:34:26.504Z,7.13
2022-11-05T01:36:53.071Z,6.70
2022-11-05T01:39:19.626Z,6.27
2022-11-05T01:41:46.226Z,6.90
2022-11-05T01:44:50.630Z,6.37
2022-11-05T01:47:42.686Z,7.00
2022-11-05T01:50:28.383Z,7.53
2022-11-05T01:53:02.113Z,7.00
2022-11-05T01:55:33.897Z,6.57
2022-11-05T01:58:02.910Z,6.20
2022-11-05T02:00:29.540Z,6.23
2022-11-05T02:02:56.202Z,6.10
2022-11-05T02:05:22.978Z,5.93
2022-11-05T02:07:50.812Z,6.27
2022-11-05T02:10:19.028Z,5.83
2022-11-05T02:12:48.194Z,6.10
2022-11-05T02:15:27.490Z,6.23
2022-11-05T02:18:19.782Z,6.50
2022-11-05T02:21:11.610Z,6.53
2022-11-05T02:24:01.737Z,6.13
2022-11-05T02:26:57.401Z,5.80
2022-11-05T02:29:51.458Z,6.73
2022-11-05T02:32:37.660Z,6.37
2022-11-05T02:35:18.876Z,5.70
2022-11-05T02:37:54.977Z,6.97
2022-11-05T02:40:31.344Z,6.80
2022-11-05T02:43:36.775Z,7.07
2022-11-05T02:46:14.943Z,7.43
2022-11-05T02:48:53.858Z,7.93
2022-11-05T02:51:36.991Z,8.30
2022-11-05T02:54:36.793Z,8.20
2022-11-05T02:57:04.164Z,7.47
2022-11-05T02:59:30.993Z,8.20
2022-11-05T03:01:59.627Z,8.20
2022-11-05T03:04:27.379Z,8.53
2022-11-05T03:07:13.942Z,8.70
2022-11-05T03:09:58.494Z,7.40
2022-11-05T03:12:56.973Z,7.90
2022-11-05T03:15:34.445Z,8.03
2022-11-05T03:18:26.516Z,7.77
2022-11-05T03:21:06.572Z,8.03
2022-11-05T03:23:38.710Z,8.03
2022-11-05T03:26:28.374Z,7.60
2022-11-05T03:29:00.899Z,8.47
2022-11-05T03:31:30.055Z,7.80
2022-11-05T03:33:59.455Z,8.10
2022-11-05T03:36:32.133Z,8.07
2022-11-05T03:39:04.918Z,8.27
2022-11-05T03:41:33.552Z,8.10
2022-11-05T03:44:05.836Z,8.83
2022-11-05T03:46:47.923Z,7.57
2022-11-05T03:49:20.841Z,7.47
2022-11-05T03:52:06.189Z,7.90
2022-11-05T03:54:34.003Z,8.80
2022-11-05T03:57:15.194Z,8.07
2022-11-05T03:59:45.070Z,7.83
2022-11-05T04:02:14.565Z,8.97
2022-11-05T04:04:41.933Z,8.27
2022-11-05T04:07:28.867Z,8.53
2022-11-05T04:10:14.362Z,8.90
2022-11-05T04:12:59.794Z,8.87
2022-11-05T04:15:27.074Z,8.60
2022-11-05T04:17:53.997Z,8.17
2022-11-05T04:20:39.073Z,8.50
2022-11-05T04:23:45.741Z,8.97
2022-11-05T04:26:12.273Z,8.97
2022-11-05T04:28:57.389Z,9.10
2022-11-05T04:31:23.931Z,9.47
2022-11-05T04:33:50.476Z,9.23
2022-11-05T04:36:17.074Z,8.97
2022-11-05T04:38:43.634Z,8.93
2022-11-05T04:41:15.255Z,8.97
2022-11-05T04:43:41.978Z,9.20
2022-11-05T04:46:08.841Z,9.33
2022-11-05T04:48:36.269Z,8.80
2022-11-05T04:51:03.756Z,8.63
2022-11-05T04:53:31.061Z,9.37
2022-11-05T04:56:11.878Z,9.23
2022-11-05T04:58:40.227Z,8.73
2022-11-05T05:01:11.227Z,9.27
2022-11-05T05:03:37.817Z,8.50
2022-11-05T05:06:04.491Z,8.73
2022-11-05T05:08:31.044Z,8.17
2022-11-05T05:11:02.240Z,7.97
2022-11-05T05:13:28.869Z,8.67
2022-11-05T05:15:55.440Z,8.33
2022-11-05T05:18:22.022Z,8.30
2022-11-05T05:21:07.585Z,8.10
2022-11-05T05:23:34.119Z,6.93
2022-11-05T05:26:00.735Z,7.60
2022-11-05T05:28:28.010Z,7.97
2022-11-05T05:30:59.281Z,7.87
2022-11-05T05:33:26.878Z,7.60
2022-11-05T05:35:53.598Z,8.60
2022-11-05T05:38:20.133Z,7.17
2022-11-05T05:40:46.787Z,8.57
2022-11-05T05:43:13.549Z,7.17
2022-11-05T05:45:40.270Z,7.87
2022-11-05T05:48:06.833Z,7.80
2022-11-05T05:50:33.426Z,7.97
2022-11-05T05:53:00.001Z,7.97
2022-11-05T05:55:26.541Z,7.93
2022-11-05T05:57:54.524Z,8.27
2022-11-05T06:00:21.176Z,8.20
2022-11-05T06:02:47.816Z,8.00
2022-11-05T06:05:14.503Z,7.97
2022-11-05T06:07:41.076Z,8.50
2022-11-05T06:10:07.911Z,7.23
2022-11-05T06:12:34.505Z,7.50
2022-11-05T06:15:01.079Z,7.87
2022-11-05T06:17:27.688Z,7.73
2022-11-05T06:19:54.238Z,8.47
2022-11-05T06:22:20.795Z,7.90
2022-11-05T06:24:47.333Z,9.30
2022-11-05T06:27:13.858Z,8.53
2022-11-05T06:29:40.473Z,7.90
2022-11-05T06:32:07.009Z,7.53
2022-11-05T06:34:33.550Z,7.97
2022-11-05T06:37:00.109Z,7.50
2022-11-05T06:39:26.641Z,7.93
2022-11-05T06:44:39.721Z,7.93
2022-11-05T06:47:06.728Z,7.27
2022-11-05T06:49:33.255Z,8.43
2022-11-05T06:51:59.806Z,7.70
2022-11-05T06:54:26.336Z,7.73
2022-11-05T06:56:52.872Z,7.17
2022-11-05T06:59:19.418Z,7.90
2022-11-05T07:01:46.113Z,7.27
2022-11-05T07:04:12.837Z,7.70
2022-11-05T07:06:39.406Z,7.20
2022-11-05T07:09:05.976Z,7.20
2022-11-05T07:11:32.571Z,8.17
2022-11-05T07:14:01.246Z,7.67
2022-11-05T07:16:27.805Z,8.67
2022-11-05T07:18:55.815Z,6.90
2022-11-05T07:21:22.470Z,7.20
2022-11-05T07:23:49.126Z,7.23
2022-11-05T07:26:15.784Z,7.10
2022-11-05T07:28:42.390Z,6.23
2022-11-05T07:31:08.988Z,6.70
2022-11-05T07:33:36.801Z,6.40
2022-11-05T07:36:03.630Z,6.10
2022-11-05T07:38:30.888Z,6.40
2022-11-05T07:41:00.190Z,6.37
2022-11-05T07:43:26.746Z,6.30
2022-11-05T07:45:53.362Z,6.93
2022-11-05T07:48:20.001Z,6.90
2022-11-05T07:50:51.670Z,7.67
2022-11-05T07:53:18.595Z,7.47
2022-11-05T07:55:46.400Z,7.43
2022-11-05T07:58:14.156Z,6.50
2022-11-05T08:00:40.958Z,6.50
2022-11-05T08:03:13.591Z,7.30
2022-11-05T08:05:46.319Z,7.20
2022-11-05T08:08:18.749Z,7.07
2022-11-05T08:10:45.736Z,6.70
2022-11-05T08:13:13.324Z,6.80
2022-11-05T08:15:40.921Z,7.17
2022-11-05T08:18:11.690Z,6.93
2022-11-05T08:20:39.314Z,6.63
2022-11-05T08:23:05.855Z,6.50
2022-11-05T08:25:33.035Z,6.53
2022-11-05T08:28:05.620Z,6.33
2022-11-05T08:30:33.050Z,6.73
2022-11-05T08:33:05.002Z,6.23
2022-11-05T08:35:31.618Z,6.87
2022-11-05T08:38:00.522Z,7.37
2022-11-05T08:40:27.474Z,6.20
2022-11-05T08:42:57.493Z,6.40
2022-11-05T08:45:24.861Z,6.40
2022-11-05T08:47:51.467Z,7.67
2022-11-05T08:50:18.070Z,5.90
2022-11-05T08:52:44.601Z,6.30
2022-11-05T08:55:11.159Z,6.47
2022-11-05T08:57:37.734Z,5.70
2022-11-05T09:00:04.730Z,5.40
2022-11-05T09:02:31.313Z,5.97
2022-11-05T09:04:57.919Z,5.13
2022-11-05T09:07:24.922Z,4.97
2022-11-05T09:09:51.487Z,6.37
2022-11-05T09:12:18.017Z,5.43
2022-11-05T09:14:44.625Z,5.27
2022-11-05T09:17:19.727Z,5.43
2022-11-05T09:19:47.136Z,6.87
2022-11-05T09:22:14.204Z,5.93
2022-11-05T09:24:44.247Z,5.33
2022-11-05T09:27:13.274Z,4.97
2022-11-05T09:29:40.494Z,4.87
2022-11-05T09:32:07.723Z,5.20
2022-11-05T09:34:35.075Z,5.47
2022-11-05T09:37:01.837Z,5.43
2022-11-05T09:39:28.382Z,5.20
2022-11-05T09:42:00.984Z,4.97
2022-11-05T09:44:40.302Z,5.33
2022-11-05T09:47:14.163Z,4.93
2022-11-05T09:49:48.484Z,5.40
2022-11-05T09:52:20.660Z,4.63
2022-11-05T09:54:50.162Z,4.67
2022-11-05T09:57:23.221Z,4.77
2022-11-05T09:59:53.231Z,4.20
2022-11-05T10:02:35.810Z,4.30
2022-11-05T10:05:10.058Z,3.60
2022-11-05T10:07:59.231Z,4.37
2022-11-05T10:10:47.094Z,4.13
2022-11-05T10:13:37.538Z,4.07
2022-11-05T10:16:28.330Z,3.70
2022-11-05T10:19:09.723Z,4.17
2022-11-05T10:22:04.794Z,3.87
2022-11-05T10:24:24.530Z,3.83
2022-11-05T10:26:53.254Z,3.40
2022-11-05T10:29:29.539Z,3.07
2022-11-05T10:32:01.110Z,3.27
2022-11-05T10:34:32.994Z,3.20
2022-11-05T10:36:59.853Z,8.57
2022-11-05T10:39:27.880Z,3.23
2022-11-05T10:42:24.076Z,3.10
2022-11-05T10:45:09.253Z,3.10
2022-11-05T10:47:52.246Z,2.87
2022-11-05T10:50:23.074Z,2.90
2022-11-05T10:52:55.210Z,2.80
2022-11-05T10:55:25.980Z,3.10
2022-11-05T10:57:53.115Z,2.33
2022-11-05T11:00:21.794Z,2.20
2022-11-05T11:02:57.529Z,2.60
2022-11-05T11:05:31.352Z,3.73
2022-11-05T11:08:12.596Z,2.80
2022-11-05T11:10:54.871Z,2.97
2022-11-05T11:13:27.982Z,2.60
2022-11-05T11:15:55.445Z,2.80
2022-11-05T11:18:38.859Z,2.87
2022-11-05T11:21:16.814Z,2.77
2022-11-05T11:23:52.875Z,2.70
2022-11-05T11:26:21.667Z,2.40
2022-11-05T11:28:55.861Z,2.47
2022-11-05T11:31:25.087Z,2.70
2022-11-05T11:34:04.158Z,2.67
2022-11-05T11:36:38.308Z,2.70
2022-11-05T11:39:06.854Z,2.33
2022-11-05T11:41:39.713Z,2.93
2022-11-05T11:44:19.196Z,2.83
2022-11-05T11:46:49.970Z,2.27
2022-11-05T11:49:45.842Z,2.60
2022-11-05T11:52:24.144Z,2.80
2022-11-05T11:54:52.132Z,2.83
2022-11-05T11:57:27.217Z,2.97
2022-11-05T12:00:08.482Z,2.23
2022-11-05T12:02:47.480Z,2.23
2022-11-05T12:05:28.836Z,2.10
2022-11-05T12:08:00.377Z,1.73
2022-11-05T12:10:59.390Z,1.90
2022-11-05T12:13:41.386Z,2.60
2022-11-05T12:16:15.987Z,1.90
2022-11-05T12:18:42.498Z,2.10
2022-11-05T12:21:58.926Z,2.63
2022-11-05T12:24:51.691Z,2.10
2022-11-05T12:27:59.201Z,2.93
2022-11-05T12:30:27.745Z,2.40
2022-11-05T12:33:26.248Z,1.80
2022-11-05T12:36:10.135Z,2.53
2022-11-05T12:38:48.554Z,2.20
2022-11-05T12:41:26.242Z,2.17
2022-11-05T12:44:30.194Z,2.20
2022-11-05T12:47:20.997Z,1.90
2022-11-05T12:50:03.977Z,1.80
2022-11-05T12:52:46.560Z,1.50
2022-11-05T12:55:21.946Z,2.10
2022-11-05T12:57:54.327Z,1.90
2022-11-05T13:00:23.830Z,1.80
2022-11-05T13:03:19.054Z,1.67
2022-11-05T13:05:50.939Z,2.23
2022-11-05T13:08:27.821Z,1.73
2022-11-05T13:11:12.722Z,2.10
2022-11-05T13:13:51.815Z,2.03
2022-11-05T13:16:48.944Z,2.07
2022-11-05T13:19:29.442Z,1.80
2022-11-05T13:22:33.530Z,2.30
2022-11-05T13:25:10.505Z,2.17
2022-11-05T13:28:02.441Z,2.03
2022-11-05T13:30:43.818Z,2.13
2022-11-05T13:33:20.167Z,2.37
2022-11-05T13:36:27.265Z,2.20
2022-11-05T13:39:07.124Z,2.00
2022-11-05T13:42:12.439Z,2.13
2022-11-05T13:44:52.652Z,2.27
2022-11-05T13:48:02.111Z,2.40
2022-11-05T13:50:47.280Z,1.90
2022-11-05T13:53:51.376Z,2.60
2022-11-05T13:56:50.959Z,2.13
2022-11-05T13:59:49.564Z,2.30
2022-11-05T14:02:36.597Z,2.80
2022-11-05T14:05:05.439Z,2.00
2022-11-05T14:07:36.321Z,2.30
2022-11-05T14:10:23.481Z,1.90
2022-11-05T14:12:52.608Z,1.93
2022-11-05T14:15:28.416Z,2.33
2022-11-05T14:18:18.269Z,2.50
2022-11-05T14:20:57.592Z,2.17
2022-11-05T14:23:24.083Z,2.10
2022-11-05T14:25:50.573Z,2.10
2022-11-05T14:28:35.195Z,1.90
2022-11-05T14:31:47.289Z,2.03
2022-11-05T14:34:13.744Z,1.80
2022-11-05T14:36:41.178Z,2.03
2022-11-05T14:39:21.005Z,2.57
2022-11-05T14:41:56.820Z,2.20
2022-11-05T14:44:25.001Z,2.00
2022-11-05T14:46:55.096Z,2.80
2022-11-05T14:49:27.143Z,3.00
2022-11-05T14:51:56.583Z,2.80
2022-11-05T14:54:27.141Z,2.57
2022-11-05T14:56:59.383Z,2.73
2022-11-05T14:59:28.090Z,2.27
2022-11-05T15:02:02.831Z,2.30
2022-11-05T15:04:30.526Z,2.50
2022-11-05T15:07:23.221Z,2.67
2022-11-05T15:10:10.234Z,2.87
2022-11-05T15:12:45.647Z,2.83
2022-11-05T15:15:25.531Z,3.10
2022-11-05T15:18:01.518Z,2.90
2022-11-05T15:20:40.388Z,2.90
2022-11-05T15:23:11.343Z,2.90
2022-11-05T15:26:03.277Z,2.90
2022-11-05T15:28:48.676Z,2.50
2022-11-05T15:31:15.181Z,2.93
2022-11-05T15:33:43.505Z,4.00
2022-11-05T15:36:30.406Z,3.17
2022-11-05T15:41:46.373Z,3.20
2022-11-05T15:44:27.370Z,2.87
2022-11-05T15:47:14.932Z,2.33
2022-11-05T15:49:48.166Z,4.20
2022-11-05T15:52:17.700Z,3.10
2022-11-05T15:54:44.577Z,2.43
2022-11-05T15:57:27.012Z,2.63
2022-11-05T15:59:53.881Z,2.50
2022-11-05T16:02:35.243Z,2.60
2022-11-05T16:05:09.202Z,2.70
2022-11-05T16:07:35.875Z,2.87
2022-11-05T16:10:03.634Z,2.63
2022-11-05T16:12:36.793Z,2.73
2022-11-05T16:15:09.331Z,3.53
2022-11-05T16:17:57.706Z,2.70
2022-11-05T16:20:29.599Z,3.17
2022-11-05T16:23:21.558Z,2.97
2022-11-05T16:25:48.203Z,2.67
2022-11-05T16:28:25.028Z,3.30
2022-11-05T16:30:59.819Z,3.07
2022-11-05T16:33:47.822Z,3.63
2022-11-05T16:36:14.590Z,3.97
2022-11-05T16:38:41.199Z,3.73
2022-11-05T16:41:17.436Z,3.60
2022-11-05T16:43:58.984Z,3.97
2022-11-05T16:46:28.695Z,4.20
2022-11-05T16:48:56.323Z,3.73
2022-11-05T16:51:27.226Z,3.63
2022-11-05T16:53:54.089Z,4.43
2022-11-05T16:56:22.486Z,3.80
2022-11-05T16:58:49.904Z,3.50
2022-11-05T17:01:21.877Z,4.63
2022-11-05T17:03:49.820Z,3.27
2022-11-05T17:06:17.834Z,3.63
2022-11-05T17:08:44.799Z,3.43
2022-11-05T17:11:16.918Z,3.20
2022-11-05T17:13:44.352Z,3.83
2022-11-05T17:16:17.218Z,3.40
2022-11-05T17:18:44.392Z,4.00
2022-11-05T17:21:14.041Z,2.97
2022-11-05T17:23:40.641Z,3.40
2022-11-05T17:26:10.153Z,3.03
2022-11-05T17:28:37.814Z,3.33
2022-11-05T17:31:06.630Z,3.30
2022-11-05T17:33:33.258Z,4.50
2022-11-05T17:36:00.260Z,3.80
2022-11-05T17:38:27.489Z,3.50
2022-11-05T17:40:54.193Z,3.57
2022-11-05T17:43:21.025Z,3.93
2022-11-05T17:45:50.104Z,3.27
2022-11-05T17:48:17.475Z,3.83
2022-11-05T17:50:46.786Z,3.83
2022-11-05T17:53:15.414Z,3.63
2022-11-05T17:55:43.831Z,3.70
2022-11-05T17:58:11.173Z,4.07
2022-11-05T18:00:38.793Z,3.77
2022-11-05T18:03:05.391Z,4.53
2022-11-05T18:05:33.710Z,3.93
2022-11-05T18:08:00.485Z,4.00
2022-11-05T18:10:27.050Z,4.73
2022-11-05T18:12:54.127Z,3.90
2022-11-05T18:15:20.684Z,4.30
2022-11-05T18:17:47.529Z,4.33
2022-11-05T18:20:18.962Z,4.07
2022-11-05T18:22:48.798Z,4.00
2022-11-05T18:25:15.607Z,4.00
2022-11-05T18:27:42.267Z,3.80
2022-11-05T18:30:10.980Z,4.10
2022-11-05T18:32:37.758Z,4.60
2022-11-05T18:35:04.650Z,4.43
2022-11-05T18:37:31.209Z,4.27
2022-11-05T18:39:57.769Z,4.37
2022-11-05T18:42:25.287Z,4.80
2022-11-05T18:44:52.046Z,4.37
2022-11-05T18:47:18.619Z,4.70
2022-11-05T18:49:45.169Z,4.50
2022-11-05T18:52:11.911Z,4.47
2022-11-05T18:54:38.549Z,4.90
2022-11-05T18:57:05.100Z,4.53
2022-11-05T18:59:39.796Z,4.40
2022-11-05T19:02:08.464Z,5.20
2022-11-05T19:04:36.584Z,4.40
2022-11-05T19:07:05.454Z,4.80
2022-11-05T19:09:34.157Z,5.37
2022-11-05T19:12:01.135Z,5.40
2022-11-05T19:14:27.879Z,5.73
2022-11-05T19:16:54.442Z,6.43
2022-11-05T19:19:21.038Z,6.13
2022-11-05T19:21:47.635Z,5.93
2022-11-05T19:24:17.292Z,5.13
2022-11-05T19:26:44.506Z,5.20
2022-11-05T19:29:11.086Z,5.43
2022-11-05T19:31:37.684Z,6.70
2022-11-05T19:34:05.386Z,6.60
2022-11-05T19:36:33.253Z,6.50
2022-11-05T19:39:04.937Z,6.40
2022-11-05T19:41:31.489Z,5.83
2022-11-05T19:43:59.417Z,5.27
2022-11-05T19:46:26.070Z,4.97
2022-11-05T19:48:52.887Z,6.70
2022-11-05T19:51:22.600Z,6.77
2022-11-05T19:53:49.431Z,7.73
2022-11-05T19:56:21.855Z,7.97
2022-11-05T19:58:49.142Z,21.17
2022-11-05T20:01:17.580Z,14.70
2022-11-05T20:03:44.892Z,7.13
2022-11-05T20:06:15.147Z,6.97
2022-11-05T20:08:59.878Z,6.60
2022-11-05T20:11:29.171Z,6.43
2022-11-05T20:13:56.768Z,6.80
2022-11-05T20:16:29.068Z,7.70
2022-11-05T20:18:56.816Z,7.43
2022-11-05T20:21:23.601Z,8.30
2022-11-05T20:23:50.126Z,7.30
2022-11-05T20:26:16.760Z,7.13
2022-11-05T20:28:43.676Z,6.93
2022-11-05T20:31:15.349Z,7.73
2022-11-05T20:33:42.985Z,7.43
2022-11-05T20:36:15.422Z,7.70
2022-11-05T20:38:42.560Z,7.10
2022-11-05T20:41:11.744Z,7.07
2022-11-05T20:43:40.927Z,7.50
2022-11-05T20:46:09.348Z,8.10
2022-11-05T20:48:36.057Z,7.23
2022-11-05T20:51:08.032Z,7.17
2022-11-05T20:53:35.780Z,7.53
2022-11-05T20:56:07.603Z,8.33
2022-11-05T20:58:36.060Z,7.63
2022-11-05T21:01:04.463Z,7.83
2022-11-05T21:03:31.203Z,7.80
2022-11-05T21:06:00.826Z,8.23
2022-11-05T21:08:27.752Z,8.60
2022-11-05T21:10:55.262Z,9.70
2022-11-05T21:13:23.073Z,8.50
2022-11-05T21:15:55.229Z,8.43
2022-11-05T21:18:25.014Z,8.67
2022-11-05T21:20:52.163Z,9.13
2022-11-05T21:23:18.942Z,8.33
2022-11-05T21:25:46.104Z,9.43
2022-11-05T21:28:14.427Z,9.77
2022-11-05T21:30:47.413Z,8.30
2022-11-05T21:33:15.737Z,9.37
2022-11-05T21:35:45.108Z,8.20
2022-11-05T21:38:13.370Z,11.27
2022-11-05T21:40:40.528Z,8.10
2022-11-05T21:43:07.569Z,8.47
2022-11-05T21:45:34.130Z,9.33
2022-11-05T21:48:00.865Z,9.20
2022-11-05T21:50:53.409Z,8.30
2022-11-05T21:53:38.886Z,7.00
2022-11-05T21:56:39.079Z,7.73
2022-11-05T21:59:24.965Z,7.10
2022-11-05T22:02:01.156Z,7.53
2022-11-05T22:04:29.971Z,6.57
2022-11-05T22:06:56.987Z,7.20
2022-11-05T22:09:24.432Z,6.80
2022-11-05T22:11:51.358Z,6.57
2022-11-05T22:14:17.932Z,8.63
2022-11-05T22:16:44.571Z,7.40
2022-11-05T22:19:11.243Z,6.47
2022-11-05T22:21:38.122Z,6.67
2022-11-05T22:24:05.318Z,6.80
2022-11-05T22:26:32.246Z,6.57
2022-11-05T22:28:58.791Z,6.43
2022-11-05T22:31:25.370Z,6.50
2022-11-05T22:33:51.981Z,6.73
2022-11-05T22:36:18.529Z,7.43
2022-11-05T22:38:45.219Z,6.40
2022-11-05T22:41:19.925Z,6.63
2022-11-05T22:43:46.484Z,7.47
2022-11-05T22:46:15.297Z,7.43
2022-11-05T22:48:42.453Z,7.60
2022-11-05T22:51:14.916Z,6.57
2022-11-05T22:53:41.713Z,7.40
2022-11-05T22:56:13.962Z,6.87
2022-11-05T22:58:41.055Z,6.53
2022-11-05T23:01:09.301Z,6.83
2022-11-05T23:03:35.898Z,6.90
2022-11-05T23:06:05.497Z,6.73
2022-11-05T23:08:51.272Z,6.63
2022-11-05T23:11:35.699Z,6.00
2022-11-05T23:14:02.857Z,6.57
2022-11-05T23:16:48.017Z,6.43
2022-11-05T23:19:33.562Z,6.70
2022-11-05T23:22:19.024Z,6.50
2022-11-05T23:24:46.691Z,6.10
2022-11-05T23:27:13.629Z,6.53
2022-11-05T23:29:40.601Z,6.07
2022-11-05T23:32:25.660Z,5.60
2022-11-05T23:34:53.694Z,5.33
2022-11-05T23:37:40.241Z,5.40
2022-11-05T23:40:09.384Z,5.80
2022-11-05T23:42:54.540Z,5.97
2022-11-05T23:45:39.980Z,4.97
2022-11-05T23:48:22.400Z,5.17
2022-11-05T23:51:01.801Z,5.97
2022-11-05T23:53:29.796Z,5.90
2022-11-05T23:56:02.524Z,5.77
2022-11-05T23:58:29.148Z,8.10
